Time;durP1;ratioP1;P1;durP2;ratioP2;P2;SDS_P1;SDS_P2;PMS_P1;PMS_P2;Temp;Humidity;BMP_temperature;BMP_pressure;BME280_temperature;BME280_humidity;BME280_pressure;Samples;Min_cycle;Max_cycle;Signal;HPM_P1;HPM_P2
2021/12/01 00:01:45;;;;;;;6.70;1.48;;;;;;;2.60;80.51;97770.56;8416233;28;20549;-76
2021/12/01 00:05:47;;;;;;;5.53;1.20;;;;;;;2.48;81.49;97796.88;8392742;28;20052;-76
2021/12/01 00:09:48;;;;;;;3.17;0.93;;;;;;;2.47;81.86;97800.59;8426474;28;20048;-76
2021/12/01 00:13:49;;;;;;;5.38;1.13;;;;;;;2.43;81.97;97810.25;8426127;28;20499;-75
2021/12/01 00:17:50;;;;;;;4.25;1.38;;;;;;;2.42;82.15;97814.00;8424689;28;20104;-75
2021/12/01 00:22:13;;;;;;;4.97;1.15;;;;;;;2.37;82.67;97832.72;8408928;28;20086;-77
2021/12/01 00:26:14;;;;;;;3.83;1.02;;;;;;;2.39;82.59;97836.66;8415017;28;20055;-76
2021/12/01 00:30:15;;;;;;;5.10;1.00;;;;;;;2.34;83.10;97849.25;8398912;28;20071;-77
2021/12/01 00:34:16;;;;;;;4.13;1.27;;;;;;;2.39;82.77;97851.84;8406001;28;20421;-75
2021/12/01 00:38:18;;;;;;;3.13;1.25;;;;;;;2.36;83.56;97852.44;8405713;28;20037;-75
2021/12/01 00:42:19;;;;;;;3.25;1.33;;;;;;;2.33;83.98;97858.31;8412422;28;20055;-76
2021/12/01 00:46:24;;;;;;;6.15;1.35;;;;;;;2.33;83.36;97868.97;8382122;28;20037;-76
2021/12/01 00:50:31;;;;;;;3.65;1.45;;;;;;;2.27;83.85;97865.59;8405440;28;20408;-76
2021/12/01 00:54:32;;;;;;;3.15;1.38;;;;;;;2.23;83.98;97880.56;8406737;28;20082;-76
2021/12/01 00:58:36;;;;;;;3.85;1.40;;;;;;;2.19;84.07;97873.41;8402250;28;20040;-76
2021/12/01 01:02:37;;;;;;;4.65;1.35;;;;;;;2.23;83.92;97885.09;8398367;28;20098;-76
2021/12/01 01:06:38;;;;;;;5.72;1.25;;;;;;;2.16;84.53;97890.78;8399444;28;20486;-77
2021/12/01 01:19:03;;;;;;;;;;;;;;;2.19;84.39;97932.00;8411173;28;20066;-77
2021/12/01 01:23:04;;;;;;;4.30;1.17;;;;;;;2.16;84.46;97945.91;8395244;28;19920;-76
2021/12/01 01:27:05;;;;;;;5.20;1.55;;;;;;;2.11;84.82;97958.19;8398988;28;20124;-76
2021/12/01 01:31:06;;;;;;;3.63;1.30;;;;;;;2.09;85.14;97959.56;8402000;28;20502;-75
2021/12/01 01:35:07;;;;;;;3.63;1.65;;;;;;;2.10;84.62;97961.94;8395128;28;20124;-76
2021/12/01 01:39:08;;;;;;;4.00;1.45;;;;;;;2.15;84.71;97984.25;8376814;28;20052;-76
2021/12/01 01:43:11;;;;;;;5.85;1.58;;;;;;;2.16;84.33;97977.88;8395233;28;20051;-77
2021/12/01 01:47:13;;;;;;;3.67;1.30;;;;;;;2.08;84.61;97979.25;8404059;28;20472;-76
2021/12/01 01:51:16;;;;;;;4.45;1.30;;;;;;;2.15;84.58;97984.25;8410581;28;20593;-76
2021/12/01 01:55:17;;;;;;;5.32;1.73;;;;;;;2.16;84.37;98001.84;8427157;28;20060;-76
2021/12/01 01:59:18;;;;;;;7.22;1.30;;;;;;;2.12;84.45;97997.06;8423246;28;20411;-76
2021/12/01 02:03:23;;;;;;;4.03;1.15;;;;;;;2.10;84.73;98003.75;8424769;28;20052;-76
2021/12/01 02:07:24;;;;;;;4.10;1.67;;;;;;;2.07;85.06;98005.09;8423951;28;20059;-75
2021/12/01 02:11:27;;;;;;;2.85;1.60;;;;;;;2.06;85.31;97997.41;8425028;28;20040;-76
2021/12/01 02:15:28;;;;;;;5.50;1.80;;;;;;;2.02;86.02;98002.47;8421408;28;20040;-76
2021/12/01 02:19:29;;;;;;;2.90;1.20;;;;;;;2.00;86.14;98001.97;8426017;28;20127;-75
2021/12/01 02:23:30;;;;;;;2.78;1.45;;;;;;;1.99;86.45;98013.69;8421667;28;20044;-76
2021/12/01 02:27:31;;;;;;;5.25;1.30;;;;;;;1.98;86.42;98033.41;8424157;28;20523;-75
2021/12/01 02:31:36;;;;;;;3.33;1.52;;;;;;;1.96;87.24;98030.22;8431746;28;20088;-76
2021/12/01 02:35:37;;;;;;;8.50;1.67;;;;;;;1.93;86.76;98046.75;8432579;28;20105;-76
2021/12/01 02:39:39;;;;;;;4.18;1.55;;;;;;;1.92;86.87;98055.81;8429726;28;20048;-75
2021/12/01 02:43:41;;;;;;;7.47;1.40;;;;;;;1.88;86.81;98057.44;8427702;28;20052;-76
2021/12/01 02:47:42;;;;;;;4.75;1.70;;;;;;;1.91;86.52;98064.88;8412171;28;20048;-75
2021/12/01 02:51:43;;;;;;;4.85;1.75;;;;;;;1.88;86.37;98054.78;8418530;28;20048;-76
2021/12/01 02:55:52;;;;;;;4.20;1.45;;;;;;;1.92;86.12;98061.13;8404206;28;20048;-75
2021/12/01 02:59:53;;;;;;;2.35;1.23;;;;;;;1.86;86.15;98051.59;8406164;28;20056;-76
2021/12/01 03:03:55;;;;;;;5.60;1.50;;;;;;;1.81;86.10;98070.28;8411662;28;20143;-76
2021/12/01 03:07:57;;;;;;;3.83;1.75;;;;;;;1.81;85.72;98070.28;8364968;28;20420;-76
2021/12/01 03:11:58;;;;;;;3.88;1.33;;;;;;;1.72;85.88;98071.94;8365448;28;20041;-76
2021/12/01 03:16:00;;;;;;;10.30;1.60;;;;;;;1.61;85.83;98065.09;8401046;28;20044;-74
2021/12/01 03:20:01;;;;;;;5.90;1.38;;;;;;;1.45;86.36;98071.56;8407548;28;20058;-75
2021/12/01 03:24:02;;;;;;;6.40;1.27;;;;;;;1.34;86.37;98080.66;8419826;28;20048;-76
2021/12/01 03:28:05;;;;;;;7.15;1.55;;;;;;;1.34;86.54;98078.00;8404270;28;20093;-76
2021/12/01 03:32:07;;;;;;;7.72;1.50;;;;;;;1.23;86.63;98070.06;8406541;28;20048;-77
2021/12/01 03:36:08;;;;;;;5.47;1.77;;;;;;;1.11;86.77;98066.16;8402873;28;20498;-75
2021/12/01 03:40:11;;;;;;;4.45;1.45;;;;;;;1.01;87.14;98051.03;8409578;28;20047;-76
2021/12/01 03:44:12;;;;;;;1.80;1.27;;;;;;;0.90;87.61;98049.47;8405785;28;20056;-75
2021/12/01 03:48:13;;;;;;;4.13;1.63;;;;;;;0.83;88.15;98049.78;8401730;28;20499;-76
2021/12/01 03:52:16;;;;;;;3.40;1.60;;;;;;;0.78;87.92;98046.34;8402490;28;20058;-76
2021/12/01 03:56:20;;;;;;;4.78;1.73;;;;;;;0.69;88.65;98054.06;8379044;28;20143;-75
2021/12/01 04:00:21;;;;;;;5.85;1.80;;;;;;;0.63;88.76;98059.66;8404392;28;20036;-75
2021/12/01 04:04:22;;;;;;;8.15;1.63;;;;;;;0.55;88.77;98057.53;8397540;28;20422;-75
2021/12/01 04:08:23;;;;;;;2.30;1.42;;;;;;;0.47;89.05;98050.13;8399331;28;20053;-76
2021/12/01 04:12:24;;;;;;;6.25;2.00;;;;;;;0.38;89.57;98053.31;8407016;28;20040;-76
2021/12/01 04:16:25;;;;;;;6.85;2.00;;;;;;;0.33;89.87;98040.06;8397702;28;20407;-75
2021/12/01 04:20:26;;;;;;;7.82;2.45;;;;;;;0.32;90.07;98027.84;8399760;28;20047;-76
2021/12/01 04:24:28;;;;;;;7.07;2.60;;;;;;;0.30;90.19;98019.38;8407607;28;20122;-75
2021/12/01 04:28:29;;;;;;;7.55;2.22;;;;;;;0.31;90.06;98015.66;8403086;28;20048;-75
2021/12/01 04:32:30;;;;;;;7.50;2.70;;;;;;;0.34;90.34;98020.41;8384375;28;20071;-76
2021/12/01 04:36:34;;;;;;;4.40;2.35;;;;;;;0.39;90.37;98023.06;8402476;28;20502;-76
2021/12/01 04:40:35;;;;;;;8.00;2.55;;;;;;;0.50;89.88;98020.38;8402963;28;20480;-76
2021/12/01 04:44:36;;;;;;;9.27;2.78;;;;;;;0.61;89.46;98021.94;8404210;28;20059;-76
2021/12/01 04:48:38;;;;;;;6.93;2.75;;;;;;;0.69;88.69;98032.00;8395526;28;20139;-75
2021/12/01 04:52:39;;;;;;;6.65;2.20;;;;;;;0.74;88.62;98034.66;8363788;28;20095;-76
2021/12/01 04:56:41;;;;;;;5.95;1.83;;;;;;;0.79;88.52;98032.00;8396883;28;20128;-75
2021/12/01 05:00:42;;;;;;;6.75;1.92;;;;;;;0.86;88.22;98032.47;8407422;28;20051;-76
2021/12/01 05:04:43;;;;;;;6.18;1.70;;;;;;;0.84;88.27;98034.63;8410565;28;20052;-76
2021/12/01 05:08:45;;;;;;;9.48;1.70;;;;;;;0.82;88.24;98028.78;8403083;28;20048;-79
2021/12/01 05:12:46;;;;;;;4.47;1.52;;;;;;;0.74;88.19;98024.03;8400297;28;20051;-77
2021/12/01 05:16:47;;;;;;;5.47;1.48;;;;;;;0.66;88.11;98027.22;8417422;28;20048;-77
2021/12/01 05:20:48;;;;;;;6.85;1.80;;;;;;;0.58;88.67;98025.16;8345582;28;20563;-76
2021/12/01 05:24:49;;;;;;;8.18;1.77;;;;;;;0.46;88.78;98016.66;8415716;28;20117;-76
2021/12/01 05:28:50;;;;;;;7.80;1.90;;;;;;;0.39;88.72;98017.75;8409455;28;20049;-76
2021/12/01 05:32:51;;;;;;;7.10;2.00;;;;;;;0.33;89.35;98018.81;8402991;28;20101;-76
2021/12/01 05:36:53;;;;;;;7.70;2.22;;;;;;;0.26;89.28;98012.19;8397015;28;20126;-76
2021/12/01 05:40:54;;;;;;;7.60;2.10;;;;;;;0.22;89.50;98011.94;8397901;28;20052;-76
2021/12/01 05:44:55;;;;;;;5.95;2.15;;;;;;;0.19;89.78;98007.16;8375235;28;20072;-75
2021/12/01 05:48:56;;;;;;;9.88;1.65;;;;;;;0.16;90.03;98007.69;8397093;28;20044;-76
2021/12/01 05:52:57;;;;;;;8.45;1.85;;;;;;;0.15;90.04;97995.50;8389253;28;20113;-76
2021/12/01 05:56:58;;;;;;;9.20;1.73;;;;;;;0.14;90.27;98004.53;8394014;28;20044;-76
2021/12/01 06:00:59;;;;;;;6.28;1.50;;;;;;;0.13;90.22;97997.59;8375106;28;20213;-76
2021/12/01 06:05:01;;;;;;;14.48;5.82;;;;;;;0.09;90.13;97985.94;8414945;28;20101;-76
2021/12/01 06:09:02;;;;;;;27.70;8.80;;;;;;;0.05;90.31;97976.94;8403363;28;20507;-76
2021/12/01 06:13:04;;;;;;;79.18;24.42;;;;;;;0.02;90.49;97980.09;8409035;28;20066;-75
2021/12/01 06:17:05;;;;;;;93.90;46.25;;;;;;;-0.02;90.34;97976.41;8409516;28;20048;-76
2021/12/01 06:21:06;;;;;;;62.53;29.58;;;;;;;-0.03;90.62;97972.16;8408114;28;20100;-76
2021/12/01 06:25:07;;;;;;;14.95;8.18;;;;;;;0.00;90.56;97963.66;8408936;28;20044;-76
2021/12/01 06:29:08;;;;;;;34.83;10.80;;;;;;;0.01;91.52;97967.88;8373106;28;20049;-76
2021/12/01 06:33:10;;;;;;;18.80;6.53;;;;;;;0.05;91.58;97963.66;8367746;28;20076;-76
2021/12/01 06:37:12;;;;;;;10.45;4.03;;;;;;;0.07;92.26;97950.91;8402871;28;20045;-76
2021/12/01 06:41:13;;;;;;;8.77;3.60;;;;;;;0.06;92.97;97949.28;8383973;28;20048;-77
2021/12/01 06:45:16;;;;;;;100.43;16.52;;;;;;;0.13;93.53;97944.50;8388350;28;20055;-76
2021/12/01 06:49:17;;;;;;;28.23;5.90;;;;;;;0.14;93.34;97935.50;8408878;28;20044;-76
2021/12/01 06:53:18;;;;;;;45.22;8.50;;;;;;;0.15;93.87;97937.09;8402797;28;20052;-76
2021/12/01 06:57:19;;;;;;;49.55;8.90;;;;;;;0.19;93.82;97924.06;8405161;28;20075;-76
2021/12/01 07:01:20;;;;;;;31.77;9.85;;;;;;;0.19;93.69;97916.88;8404627;28;20045;-76
2021/12/01 07:05:31;;;;;;;20.40;6.82;;;;;;;0.18;93.43;97917.16;8404523;28;20059;-77
2021/12/01 07:09:39;;;;;;;16.67;6.05;;;;;;;0.15;93.84;97913.19;8323379;28;20500;-77
2021/12/01 07:13:40;;;;;;;35.88;10.13;;;;;;;0.15;93.53;97904.44;8363394;28;20570;-76
2021/12/01 07:17:42;;;;;;;35.83;9.75;;;;;;;0.21;93.59;97904.13;8421232;28;20105;-76
2021/12/01 07:21:43;;;;;;;27.80;9.27;;;;;;;0.23;93.84;97891.38;8401572;28;20107;-75
2021/12/01 07:25:46;;;;;;;22.45;7.80;;;;;;;0.25;93.62;97888.47;8387982;28;20047;-76
2021/12/01 07:29:49;;;;;;;28.05;8.70;;;;;;;0.23;94.03;97875.44;8401593;28;20419;-77
2021/12/01 07:33:54;;;;;;;25.70;7.53;;;;;;;0.25;94.56;97868.03;8321919;28;20078;-77
2021/12/01 07:37:54;;;;;;;28.98;7.95;;;;;;;0.28;94.70;97851.53;8401369;28;20086;-76
2021/12/01 07:41:55;;;;;;;21.15;7.05;;;;;;;0.32;94.67;97846.47;8401083;28;20196;-77
2021/12/01 07:45:56;;;;;;;29.30;8.25;;;;;;;0.37;94.74;97839.25;8403822;28;20078;-77
2021/12/01 07:49:57;;;;;;;23.50;8.40;;;;;;;0.50;94.46;97823.81;8397893;28;20045;-76
2021/12/01 07:53:58;;;;;;;25.63;7.60;;;;;;;0.57;94.67;97816.34;8397691;28;20108;-77
2021/12/01 07:57:59;;;;;;;37.85;10.20;;;;;;;0.62;94.14;97813.66;8400700;28;20048;-77
2021/12/01 08:02:00;;;;;;;30.27;8.63;;;;;;;0.63;93.99;97809.94;8400295;28;20145;-77
2021/12/01 08:06:01;;;;;;;47.65;14.25;;;;;;;0.65;94.02;97802.44;8400645;28;20420;-76
2021/12/01 08:10:04;;;;;;;32.97;10.40;;;;;;;0.63;93.97;97793.97;8368492;28;20040;-77
2021/12/01 08:14:08;;;;;;;26.13;8.77;;;;;;;0.63;94.13;97778.03;8431148;28;20534;-76
2021/12/01 08:18:11;;;;;;;21.05;8.00;;;;;;;0.62;94.64;97776.44;8430486;28;20476;-77
2021/12/01 08:22:12;;;;;;;37.88;9.85;;;;;;;0.64;94.55;97775.09;8429136;28;20040;-77
2021/12/01 08:26:15;;;;;;;29.52;9.05;;;;;;;0.75;94.37;97786.44;8419585;28;20139;-77
2021/12/01 08:30:19;;;;;;;22.92;7.90;;;;;;;0.78;94.28;97767.31;8397067;28;20032;-77
2021/12/01 08:34:21;;;;;;;23.30;7.88;;;;;;;0.76;94.15;97766.78;8419040;28;20045;-76
2021/12/01 08:38:23;;;;;;;21.17;8.00;;;;;;;0.77;94.25;97768.38;8396444;28;20047;-76
2021/12/01 08:42:24;;;;;;;22.02;6.78;;;;;;;0.84;94.04;97758.22;8397896;28;20380;-76
2021/12/01 08:46:25;;;;;;;23.48;6.72;;;;;;;0.86;93.93;97756.06;8425931;28;20032;-77
2021/12/01 08:50:26;;;;;;;26.58;6.97;;;;;;;0.84;94.14;97755.56;8427977;28;20466;-76
2021/12/01 08:54:27;;;;;;;28.55;7.82;;;;;;;0.90;93.97;97746.44;8429170;28;20051;-76
2021/12/01 08:58:29;;;;;;;23.38;7.25;;;;;;;0.92;94.03;97739.00;8400381;28;20170;-76
2021/12/01 09:02:30;;;;;;;24.98;8.15;;;;;;;0.98;94.40;97732.56;8421127;28;20411;-76
2021/12/01 09:06:30;;;;;;;36.60;10.20;;;;;;;0.98;94.63;97732.56;8430167;28;20044;-76
2021/12/01 09:10:32;;;;;;;27.08;8.20;;;;;;;0.94;95.00;97720.91;8430217;28;20055;-76
2021/12/01 09:14:33;;;;;;;23.67;7.85;;;;;;;1.00;95.29;97698.53;8430013;28;20052;-75
2021/12/01 09:18:34;;;;;;;35.65;8.65;;;;;;;1.17;95.46;97688.25;8429755;28;20051;-76
2021/12/01 09:22:35;;;;;;;20.63;8.25;;;;;;;1.38;95.30;97666.72;8429763;28;20412;-77
2021/12/01 09:26:37;;;;;;;37.78;9.80;;;;;;;1.48;95.93;97662.09;8429695;28;20452;-76
2021/12/01 09:30:39;;;;;;;33.00;9.38;;;;;;;1.63;95.67;97650.47;8369241;28;20598;-77
2021/12/01 09:34:41;;;;;;;31.92;9.95;;;;;;;1.67;95.70;97648.81;8395666;28;20058;-76
2021/12/01 09:38:43;;;;;;;41.75;12.18;;;;;;;1.79;95.48;97646.53;8376701;28;20170;-77
2021/12/01 09:42:48;;;;;;;52.33;17.77;;;;;;;1.83;95.23;97642.22;8395574;28;20415;-77
2021/12/01 09:46:49;;;;;;;36.20;11.35;;;;;;;1.84;95.60;97625.19;8395645;28;20080;-77
2021/12/01 09:50:52;;;;;;;38.85;11.75;;;;;;;1.95;95.58;97623.94;8376768;28;20126;-77
2021/12/01 09:54:54;;;;;;;28.08;8.80;;;;;;;1.95;95.80;97623.94;8395518;28;20055;-76
2021/12/01 09:58:56;;;;;;;40.53;11.55;;;;;;;1.95;96.35;97617.84;8395435;28;20036;-76
2021/12/01 10:02:58;;;;;;;37.80;12.38;;;;;;;1.94;96.65;97610.91;8395164;28;20067;-76
2021/12/01 10:07:17;;;;;;;29.13;9.90;;;;;;;1.99;97.33;97611.63;8395287;28;20093;-76
2021/12/01 10:11:21;;;;;;;;;;;;;;;2.08;97.54;97599.25;8395387;28;20040;-77
2021/12/01 10:15:31;;;;;;;31.85;10.95;;;;;;;2.18;97.61;97594.84;8395158;28;19925;-76
2021/12/01 10:19:32;;;;;;;26.27;10.07;;;;;;;2.27;97.65;97582.44;8396228;28;20779;-77
2021/12/01 10:23:35;;;;;;;24.10;8.68;;;;;;;2.42;97.53;97598.19;8396042;28;20056;-76
2021/12/01 10:27:39;;;;;;;23.85;8.57;;;;;;;2.47;97.11;97576.78;8360818;28;20059;-76
2021/12/01 10:31:48;;;;;;;31.63;10.80;;;;;;;2.50;96.90;97565.53;8395793;28;20047;-76
2021/12/01 10:35:49;;;;;;;22.20;8.00;;;;;;;2.53;96.75;97547.09;8395709;28;20049;-76
2021/12/01 10:40:18;;;;;;;22.38;8.20;;;;;;;2.54;96.65;97545.19;8394338;28;20052;-77
2021/12/01 10:44:19;;;;;;;32.65;10.05;;;;;;;2.55;96.63;97530.78;8395496;28;20052;-77
2021/12/01 10:48:23;;;;;;;36.53;12.15;;;;;;;2.56;96.83;97529.72;8395599;28;20048;-76
2021/12/01 10:52:27;;;;;;;36.40;11.77;;;;;;;2.60;96.86;97512.03;8401645;28;20070;-76
2021/12/01 10:56:30;;;;;;;22.80;8.10;;;;;;;2.60;97.12;97506.69;8401513;28;20056;-76
2021/12/01 11:00:43;;;;;;;30.73;10.43;;;;;;;2.68;96.90;97492.69;8401390;28;20566;-76
2021/12/01 11:04:49;;;;;;;33.53;9.65;;;;;;;2.66;97.26;97484.19;8401014;28;20060;-76
2021/12/01 11:09:01;;;;;;;28.05;10.32;;;;;;;2.75;97.36;97468.31;8401312;28;20044;-76
2021/12/01 11:13:03;;;;;;;27.25;9.27;;;;;;;2.77;97.56;97458.94;8400916;28;20045;-77
2021/12/01 11:17:04;;;;;;;30.17;10.02;;;;;;;2.72;98.06;97445.69;8400405;28;20053;-77
2021/12/01 11:21:11;;;;;;;21.38;9.85;;;;;;;2.73;98.36;97436.63;8399730;28;20139;-78
2021/12/01 11:25:20;;;;;;;25.25;10.30;;;;;;;2.74;98.54;97435.53;8400605;28;20098;-75
2021/12/01 11:29:22;;;;;;;29.33;10.60;;;;;;;2.70;99.19;97426.53;8398929;28;20055;-76
2021/12/01 11:33:24;;;;;;;37.40;12.95;;;;;;;2.70;99.42;97402.56;8381396;28;20046;-77
2021/12/01 11:37:25;;;;;;;38.13;13.85;;;;;;;2.71;100.00;97396.13;8400070;28;20045;-76
2021/12/01 11:41:28;;;;;;;36.95;13.00;;;;;;;2.76;100.00;97382.69;8398052;28;20068;-78
2021/12/01 11:45:29;;;;;;;29.38;11.68;;;;;;;2.79;100.00;97371.47;8399920;28;20060;-76
2021/12/01 11:49:32;;;;;;;30.17;11.20;;;;;;;2.84;100.00;97368.69;8381030;28;20045;-76
2021/12/01 11:53:45;;;;;;;22.67;10.95;;;;;;;2.86;100.00;97355.81;8397793;28;20071;-76
2021/12/01 11:57:46;;;;;;;25.85;10.55;;;;;;;2.93;100.00;97356.19;8398761;28;20100;-75
2021/12/01 12:01:54;;;;;;;25.02;11.90;;;;;;;2.96;100.00;97339.59;8399096;28;20054;-76
2021/12/01 12:06:18;;;;;;;33.93;13.90;;;;;;;3.03;100.00;97330.38;8399149;28;20056;-76
2021/12/01 12:10:21;;;;;;;26.52;12.75;;;;;;;3.10;100.00;97333.44;8263067;28;20290;-77
2021/12/01 12:14:32;;;;;;;30.33;10.88;;;;;;;3.21;100.00;97318.75;8263566;28;20134;-77
2021/12/01 12:18:36;;;;;;;32.38;13.85;;;;;;;3.27;100.00;97307.66;8263546;28;20066;-76
2021/12/01 12:22:40;;;;;;;23.48;12.20;;;;;;;3.39;100.00;97315.09;8231091;28;20069;-76
2021/12/01 12:26:49;;;;;;;28.42;13.15;;;;;;;3.52;100.00;97308.91;8236903;28;20049;-76
2021/12/01 12:30:53;;;;;;;25.98;12.23;;;;;;;3.60;100.00;97308.13;8295856;28;20100;-78
2021/12/01 12:34:56;;;;;;;29.00;11.77;;;;;;;3.63;100.00;97296.88;8295915;28;20042;-77
2021/12/01 12:39:21;;;;;;;29.17;12.48;;;;;;;3.68;100.00;97278.03;8295545;28;20132;-75
2021/12/01 12:43:24;;;;;;;24.10;11.82;;;;;;;3.72;100.00;97275.53;8295521;28;20074;-75
2021/12/01 12:47:40;;;;;;;19.80;10.50;;;;;;;3.79;100.00;97276.66;8356117;28;20048;-75
2021/12/01 12:51:41;;;;;;;19.83;10.70;;;;;;;3.75;100.00;97254.34;8431270;28;20044;-77
2021/12/01 12:55:44;;;;;;;23.65;11.10;;;;;;;3.74;100.00;97258.13;8431418;28;20372;-77
2021/12/01 12:59:45;;;;;;;27.27;12.88;;;;;;;3.73;100.00;97239.72;8427333;28;20139;-76
2021/12/01 13:03:47;;;;;;;33.55;13.65;;;;;;;3.68;100.00;97227.31;8378324;28;20480;-78
2021/12/01 13:07:49;;;;;;;32.28;13.65;;;;;;;3.66;100.00;97223.38;8397408;28;20142;-76
2021/12/01 13:11:57;;;;;;;21.75;10.98;;;;;;;3.64;100.00;97231.72;8396791;28;20128;-77
2021/12/01 13:15:59;;;;;;;22.27;11.40;;;;;;;3.63;100.00;97224.78;8397235;28;20492;-78
2021/12/01 13:20:00;;;;;;;21.70;11.60;;;;;;;3.64;100.00;97221.03;8361804;28;20044;-77
2021/12/01 13:24:01;;;;;;;21.40;11.50;;;;;;;3.66;100.00;97210.81;8395868;28;20033;-78
2021/12/01 13:28:03;;;;;;;27.77;12.35;;;;;;;3.66;100.00;97208.13;8397068;28;20101;-78
2021/12/01 13:32:04;;;;;;;20.42;12.02;;;;;;;3.65;100.00;97206.56;8396906;28;20048;-78
2021/12/01 13:36:16;;;;;;;24.13;11.68;;;;;;;3.65;100.00;97206.56;8377642;28;20056;-79
2021/12/01 13:40:16;;;;;;;23.05;12.57;;;;;;;3.64;100.00;97205.00;8396577;28;20059;-77
2021/12/01 13:44:24;;;;;;;21.02;11.27;;;;;;;3.67;100.00;97201.72;8396620;28;20518;-78
2021/12/01 13:48:26;;;;;;;23.38;11.07;;;;;;;3.73;100.00;97192.47;8396547;28;20079;-78
2021/12/01 13:52:37;;;;;;;21.20;11.63;;;;;;;3.78;100.00;97211.00;8396438;28;20060;-76
2021/12/01 13:56:38;;;;;;;21.00;10.27;;;;;;;3.85;100.00;97204.44;8377272;28;20047;-77
2021/12/01 14:00:51;;;;;;;13.30;8.10;;;;;;;3.98;100.00;97203.50;8396331;28;20400;-77
2021/12/01 14:04:53;;;;;;;12.48;6.05;;;;;;;4.03;100.00;97190.00;8396321;28;20063;-77
2021/12/01 14:09:13;;;;;;;17.17;5.30;;;;;;;4.09;99.77;97183.41;8394944;28;20059;-77
2021/12/01 14:13:18;;;;;;;10.15;4.82;;;;;;;4.18;98.78;97176.19;8396119;28;20049;-76
2021/12/01 14:17:19;;;;;;;9.90;4.90;;;;;;;4.22;98.23;97167.25;8394912;28;20039;-75
2021/12/01 14:21:22;;;;;;;11.27;5.13;;;;;;;4.21;98.06;97154.19;8394869;28;20048;-77
2021/12/01 14:25:24;;;;;;;17.27;6.18;;;;;;;4.23;97.72;97146.63;8380605;28;20597;-77
2021/12/01 14:29:30;;;;;;;26.98;10.00;;;;;;;4.29;97.55;97144.59;8401771;28;20127;-77
2021/12/01 14:33:31;;;;;;;18.50;8.00;;;;;;;4.30;97.36;97125.59;8401066;28;20071;-77
2021/12/01 14:37:35;;;;;;;16.58;6.45;;;;;;;4.28;97.28;97133.16;8380581;28;20056;-76
2021/12/01 14:41:36;;;;;;;20.40;8.20;;;;;;;4.28;97.26;97122.47;8398143;28;20052;-77
2021/12/01 14:45:37;;;;;;;19.52;8.30;;;;;;;4.31;96.66;97111.13;8396816;28;20047;-77
2021/12/01 14:49:44;;;;;;;15.05;6.82;;;;;;;4.32;96.37;97112.69;8396617;28;20082;-78
2021/12/01 14:53:45;;;;;;;15.18;5.68;;;;;;;4.31;96.37;97103.09;8396247;28;20083;-77
2021/12/01 14:57:52;;;;;;;10.90;4.65;;;;;;;4.33;95.70;97092.91;8396134;28;20052;-76
2021/12/01 15:02:09;;;;;;;10.00;4.28;;;;;;;4.38;95.15;97084.72;8376434;28;20101;-77
2021/12/01 15:06:11;;;;;;;10.52;4.97;;;;;;;4.46;94.64;97065.19;8395256;28;20206;-77
2021/12/01 15:10:12;;;;;;;10.77;4.95;;;;;;;4.49;94.05;97058.44;8393288;28;20122;-76
2021/12/01 15:14:29;;;;;;;12.45;5.80;;;;;;;4.47;94.23;97056.06;8415058;28;20121;-76
2021/12/01 15:18:38;;;;;;;17.75;5.65;;;;;;;4.52;93.42;97063.91;8431964;28;20483;-77
2021/12/01 15:23:03;;;;;;;15.00;5.60;;;;;;;4.50;94.11;97058.09;8428352;28;20040;-75
2021/12/01 15:27:04;;;;;;;23.17;7.90;;;;;;;4.50;94.41;97055.44;8433060;28;20044;-77
2021/12/01 15:31:05;;;;;;;14.40;5.60;;;;;;;4.53;94.24;97049.47;8432655;28;20459;-77
2021/12/01 15:35:06;;;;;;;14.25;5.50;;;;;;;4.54;94.18;97051.03;8430851;28;20043;-77
2021/12/01 15:39:08;;;;;;;21.13;8.23;;;;;;;4.50;94.64;97033.25;8423774;28;20504;-76
2021/12/01 15:43:08;;;;;;;23.65;8.10;;;;;;;4.48;94.92;97038.16;8418319;28;20067;-76
2021/12/01 15:47:09;;;;;;;19.23;8.13;;;;;;;4.47;94.99;97029.34;8431478;28;20066;-75
2021/12/01 15:51:10;;;;;;;19.45;9.43;;;;;;;4.47;95.04;97029.34;8403506;28;20056;-75
2021/12/01 15:55:11;;;;;;;14.63;6.65;;;;;;;4.47;95.04;97024.00;8399960;28;20044;-76
2021/12/01 15:59:12;;;;;;;16.45;6.60;;;;;;;4.46;94.79;97014.41;8425296;28;20045;-79
2021/12/01 16:03:13;;;;;;;19.23;8.45;;;;;;;4.52;93.78;97010.47;8410033;28;20511;-79
2021/12/01 16:07:13;;;;;;;18.45;8.07;;;;;;;4.53;93.80;97000.56;8431694;28;20068;-78
2021/12/01 16:11:16;;;;;;;18.42;7.32;;;;;;;4.60;93.17;97006.97;8432750;28;20048;-77
2021/12/01 16:15:18;;;;;;;18.17;7.20;;;;;;;4.64;92.55;96996.44;8430852;28;20048;-76
2021/12/01 16:19:19;;;;;;;12.32;5.82;;;;;;;4.71;91.63;97001.25;8427650;28;20071;-76
2021/12/01 16:23:26;;;;;;;9.90;5.32;;;;;;;4.74;91.08;96990.72;8432315;28;20040;-75
2021/12/01 16:27:27;;;;;;;9.35;4.78;;;;;;;4.82;90.89;96991.78;8432129;28;20419;-78
2021/12/01 16:31:29;;;;;;;9.45;4.40;;;;;;;4.94;89.44;96978.50;8426623;28;20048;-78
2021/12/01 16:35:33;;;;;;;6.97;3.83;;;;;;;4.94;89.22;96983.84;8375105;28;20048;-79
2021/12/01 16:39:33;;;;;;;7.88;4.32;;;;;;;5.03;88.69;96981.91;8391647;28;20048;-78
2021/12/01 16:43:36;;;;;;;5.80;2.83;;;;;;;5.19;87.40;96969.53;8391197;28;20076;-78
2021/12/01 16:47:37;;;;;;;6.32;3.45;;;;;;;5.25;86.72;96965.56;8391052;28;20571;-79
2021/12/01 16:51:38;;;;;;;6.35;3.97;;;;;;;5.31;86.41;96966.94;8384414;28;20048;-80
2021/12/01 16:55:39;;;;;;;7.63;3.95;;;;;;;5.36;86.34;96953.34;8374163;28;20096;-77
2021/12/01 16:59:41;;;;;;;7.10;3.95;;;;;;;5.44;85.73;96955.19;8331576;28;20057;-77
2021/12/01 17:03:49;;;;;;;6.22;4.10;;;;;;;5.40;86.03;96948.91;8341841;28;20056;-78
2021/12/01 17:12:00;;;;;;;7.53;4.38;;;;;;;5.46;85.87;96936.88;8380856;28;20043;-79
2021/12/01 17:16:01;;;;;;;8.70;3.92;;;;;;;5.53;85.52;96937.16;8407080;28;20048;-77
2021/12/01 17:20:08;;;;;;;11.52;4.53;;;;;;;5.64;85.04;96926.81;8422888;28;20047;-76
2021/12/01 17:24:09;;;;;;;7.97;4.07;;;;;;;5.63;85.22;96924.47;8429710;28;20487;-78
2021/12/01 17:28:09;;;;;;;10.82;4.05;;;;;;;5.62;85.18;96912.19;8429982;28;20059;-78
2021/12/01 17:32:17;;;;;;;7.35;4.32;;;;;;;5.68;84.74;96905.53;8430222;28;20085;-78
2021/12/01 17:36:19;;;;;;;7.80;4.10;;;;;;;5.70;84.58;96897.94;8430188;28;20075;-77
2021/12/01 17:40:20;;;;;;;12.43;5.53;;;;;;;5.59;85.66;96896.78;8430177;28;20046;-78
2021/12/01 17:44:21;;;;;;;20.15;9.27;;;;;;;5.48;86.11;96886.50;8430147;28;20047;-78
2021/12/01 17:48:22;;;;;;;12.02;5.97;;;;;;;5.40;87.00;96879.31;8429874;28;20040;-78
2021/12/01 17:52:23;;;;;;;10.10;4.78;;;;;;;5.40;86.91;96884.66;8415561;28;20071;-79
2021/12/01 17:56:26;;;;;;;10.93;5.15;;;;;;;5.32;86.89;96877.50;8394307;28;20053;-76
2021/12/01 18:00:27;;;;;;;14.30;6.20;;;;;;;5.28;87.43;96875.81;8403115;28;20098;-76
2021/12/01 18:04:28;;;;;;;10.20;5.60;;;;;;;5.33;86.78;96881.75;8417806;28;20056;-76
2021/12/01 18:08:29;;;;;;;11.18;5.93;;;;;;;5.26;87.35;96878.81;8444554;28;20123;-78
2021/12/01 18:12:31;;;;;;;9.35;4.85;;;;;;;5.18;87.80;96877.00;8440113;28;20056;-77
2021/12/01 18:16:32;;;;;;;14.75;5.72;;;;;;;5.16;87.65;96884.56;8440210;28;20101;-77
2021/12/01 18:20:34;;;;;;;13.40;5.97;;;;;;;5.14;87.70;96873.41;8440872;28;20085;-77
2021/12/01 18:24:35;;;;;;;13.00;5.22;;;;;;;5.14;87.73;96876.06;8433363;28;20051;-76
2021/12/01 18:28:36;;;;;;;10.85;5.47;;;;;;;5.22;87.65;96872.56;8417185;28;20487;-76
2021/12/01 18:32:37;;;;;;;15.38;5.80;;;;;;;5.21;88.03;96875.56;8440610;28;20043;-75
2021/12/01 18:36:40;;;;;;;12.02;5.35;;;;;;;5.27;87.87;96858.97;8440103;28;20521;-80
2021/12/01 18:40:41;;;;;;;15.63;5.60;;;;;;;5.33;87.31;96859.56;8421177;28;20052;-76
2021/12/01 18:44:42;;;;;;;18.15;6.32;;;;;;;5.37;87.11;96863.91;8407684;28;20140;-77
2021/12/01 18:48:44;;;;;;;18.35;8.23;;;;;;;5.31;87.15;96864.44;8415501;28;20052;-77
2021/12/01 18:52:45;;;;;;;13.07;6.45;;;;;;;5.33;87.02;96865.69;8406530;28;20423;-76
2021/12/01 18:56:46;;;;;;;12.98;6.88;;;;;;;5.35;87.12;96860.00;8426766;28;20040;-77
2021/12/01 19:00:47;;;;;;;17.88;7.22;;;;;;;5.33;87.11;96865.69;8438955;28;20738;-76
2021/12/01 19:04:48;;;;;;;12.63;6.85;;;;;;;5.28;87.44;96868.56;8438889;28;20078;-76
2021/12/01 19:08:49;;;;;;;16.95;7.63;;;;;;;5.34;87.16;96859.22;8439888;28;20101;-76
2021/12/01 19:12:50;;;;;;;17.70;8.27;;;;;;;5.32;87.43;96856.09;8430018;28;20044;-76
2021/12/01 19:16:51;;;;;;;23.65;11.43;;;;;;;5.31;87.72;96849.16;8429566;28;20052;-75